Time;durP1;ratioP1;P1;durP2;ratioP2;P2;SDS_P1;SDS_P2;PMS_P1;PMS_P2;Temp;Humidity;BMP_temperature;BMP_pressure;BME280_temperature;BME280_humidity;BME280_pressure;Samples;Min_cycle;Max_cycle;Signal;HPM_P1;HPM_P2
2021/08/20 00:01:00;;;;;;;9.60;3.65;;;;;;;;;;5023440;28;20391;-85
2021/08/20 00:03:25;;;;;;;7.65;3.83;;;;;;;;;;5034525;28;20441;-85
2021/08/20 00:05:50;;;;;;;5.03;3.35;;;;;;;;;;5022297;28;20027;-85
2021/08/20 00:08:16;;;;;;;5.25;3.47;;;;;;;;;;5012552;28;20105;-84
2021/08/20 00:10:41;;;;;;;8.75;4.03;;;;;;;;;;5013143;28;20022;-85
2021/08/20 00:13:06;;;;;;;9.43;3.78;;;;;;;;;;5013213;28;20068;-85
2021/08/20 00:15:32;;;;;;;10.82;4.55;;;;;;;;;;5013433;28;20430;-85
2021/08/20 00:17:57;;;;;;;5.38;3.47;;;;;;;;;;5014850;28;20111;-85
2021/08/20 00:20:23;;;;;;;6.28;3.72;;;;;;;;;;5013490;28;20022;-86
2021/08/20 00:22:48;;;;;;;8.25;3.95;;;;;;;;;;5013271;28;20022;-85
2021/08/20 00:25:13;;;;;;;5.55;3.60;;;;;;;;;;5013268;28;20026;-85
2021/08/20 00:27:38;;;;;;;11.73;4.03;;;;;;;;;;5013219;28;20026;-85
2021/08/20 00:30:07;;;;;;;6.15;3.40;;;;;;;;;;5015302;28;20375;-85
2021/08/20 00:32:32;;;;;;;8.55;3.92;;;;;;;;;;5013997;28;20121;-85
2021/08/20 00:34:57;;;;;;;5.82;3.40;;;;;;;;;;5013708;28;20045;-85
2021/08/20 00:37:23;;;;;;;8.85;4.00;;;;;;;;;;5014172;28;20058;-85
2021/08/20 00:39:48;;;;;;;8.80;3.70;;;;;;;;;;5013651;28;20056;-85
2021/08/20 00:42:13;;;;;;;8.35;3.85;;;;;;;;;;5013715;28;20026;-85
2021/08/20 00:44:38;;;;;;;9.20;4.15;;;;;;;;;;5013787;28;20026;-84
2021/08/20 00:47:04;;;;;;;7.88;4.03;;;;;;;;;;5013926;28;20462;-85
2021/08/20 00:49:29;;;;;;;6.80;4.00;;;;;;;;;;5013486;28;20041;-85
2021/08/20 00:51:54;;;;;;;6.43;3.80;;;;;;;;;;5013759;28;20024;-85
2021/08/20 00:54:20;;;;;;;7.30;3.72;;;;;;;;;;5014007;28;20112;-85
2021/08/20 00:56:46;;;;;;;6.95;4.10;;;;;;;;;;5013476;28;20029;-85
2021/08/20 00:59:11;;;;;;;9.38;4.18;;;;;;;;;;5013554;28;20049;-85
2021/08/20 01:01:37;;;;;;;7.60;3.80;;;;;;;;;;5013445;28;20030;-84
2021/08/20 01:04:02;;;;;;;10.38;3.92;;;;;;;;;;5013671;28;20415;-85
2021/08/20 01:06:28;;;;;;;5.15;3.33;;;;;;;;;;5013400;28;20022;-85
2021/08/20 01:08:53;;;;;;;8.70;3.83;;;;;;;;;;5013417;28;20071;-85
2021/08/20 01:11:19;;;;;;;8.88;3.95;;;;;;;;;;5013236;28;20026;-85
2021/08/20 01:13:44;;;;;;;7.20;4.10;;;;;;;;;;5013084;28;20026;-85
2021/08/20 01:16:09;;;;;;;7.65;3.65;;;;;;;;;;5013195;28;20018;-85
2021/08/20 01:18:39;;;;;;;8.32;3.80;;;;;;;;;;5014269;28;20014;-85
2021/08/20 01:21:06;;;;;;;8.63;3.80;;;;;;;;;;5013015;28;20774;-85
2021/08/20 01:23:31;;;;;;;8.68;4.00;;;;;;;;;;5014619;28;20471;-85
2021/08/20 01:25:57;;;;;;;7.47;3.80;;;;;;;;;;5014300;28;20101;-85
2021/08/20 01:28:24;;;;;;;9.20;3.90;;;;;;;;;;5013015;28;20433;-85
2021/08/20 01:30:50;;;;;;;8.57;4.53;;;;;;;;;;5012729;28;20370;-85
2021/08/20 01:33:15;;;;;;;5.30;3.17;;;;;;;;;;5020627;28;20037;-85
2021/08/20 01:35:40;;;;;;;6.40;3.83;;;;;;;;;;5012901;28;20037;-85
2021/08/20 01:38:06;;;;;;;6.90;4.35;;;;;;;;;;5013997;28;20022;-85
2021/08/20 01:40:31;;;;;;;8.07;4.18;;;;;;;;;;5012655;28;20022;-85
2021/08/20 01:42:56;;;;;;;8.35;4.55;;;;;;;;;;5012758;28;20037;-85
2021/08/20 01:45:21;;;;;;;6.55;4.10;;;;;;;;;;5012817;28;20084;-85
2021/08/20 01:47:47;;;;;;;7.28;3.72;;;;;;;;;;5012457;28;20025;-85
2021/08/20 01:50:12;;;;;;;8.18;4.18;;;;;;;;;;5012555;28;20022;-85
2021/08/20 01:52:38;;;;;;;7.85;3.97;;;;;;;;;;5012605;28;20105;-85
2021/08/20 01:55:04;;;;;;;6.00;4.03;;;;;;;;;;5012199;28;20429;-85
2021/08/20 01:57:30;;;;;;;9.43;4.30;;;;;;;;;;5013919;28;20045;-85
2021/08/20 01:59:55;;;;;;;6.70;3.85;;;;;;;;;;5012335;28;20022;-85
2021/08/20 02:02:20;;;;;;;10.02;4.40;;;;;;;;;;5011949;28;20068;-85
2021/08/20 02:04:45;;;;;;;6.90;3.95;;;;;;;;;;5013276;28;20024;-85
2021/08/20 02:07:10;;;;;;;9.77;4.03;;;;;;;;;;5012535;28;20474;-85
2021/08/20 02:09:36;;;;;;;8.02;4.18;;;;;;;;;;5012449;28;20029;-85
2021/08/20 02:12:01;;;;;;;7.85;4.28;;;;;;;;;;5012237;28;20033;-85
2021/08/20 02:14:26;;;;;;;7.78;3.85;;;;;;;;;;5012565;28;20037;-85
2021/08/20 02:16:51;;;;;;;7.70;3.78;;;;;;;;;;5013724;28;20022;-84
2021/08/20 02:19:17;;;;;;;7.10;3.72;;;;;;;;;;5013476;28;20053;-85
2021/08/20 02:21:42;;;;;;;6.63;3.53;;;;;;;;;;5011906;28;20030;-85
2021/08/20 02:24:07;;;;;;;6.88;3.42;;;;;;;;;;5012055;28;20038;-85
2021/08/20 02:26:32;;;;;;;13.90;4.25;;;;;;;;;;5012226;28;20097;-85
2021/08/20 02:28:57;;;;;;;6.97;4.25;;;;;;;;;;5012056;28;20041;-85
2021/08/20 02:31:23;;;;;;;9.52;4.60;;;;;;;;;;5012194;28;20018;-85
2021/08/20 02:33:49;;;;;;;7.72;4.25;;;;;;;;;;5012302;28;20022;-85
2021/08/20 02:36:15;;;;;;;11.75;4.38;;;;;;;;;;5012144;28;20025;-85
2021/08/20 02:38:40;;;;;;;9.23;4.57;;;;;;;;;;5012021;28;20029;-85
2021/08/20 02:41:05;;;;;;;11.38;4.63;;;;;;;;;;5012208;28;20034;-85
2021/08/20 02:43:30;;;;;;;11.05;5.13;;;;;;;;;;5011864;28;20037;-85
2021/08/20 02:45:56;;;;;;;9.98;4.50;;;;;;;;;;5011410;28;20087;-85
2021/08/20 02:48:22;;;;;;;11.18;4.80;;;;;;;;;;5011477;28;20021;-85
2021/08/20 02:50:47;;;;;;;12.13;4.80;;;;;;;;;;5011689;28;20022;-85
2021/08/20 02:53:12;;;;;;;8.85;4.60;;;;;;;;;;5011549;28;20033;-85
2021/08/20 02:55:37;;;;;;;11.23;5.40;;;;;;;;;;5013135;28;20014;-85
2021/08/20 02:58:04;;;;;;;17.40;5.20;;;;;;;;;;5011644;28;20537;-84
2021/08/20 03:00:30;;;;;;;11.73;5.05;;;;;;;;;;5014249;28;20040;-85
2021/08/20 03:02:55;;;;;;;11.20;5.28;;;;;;;;;;5017230;28;20022;-85
2021/08/20 03:05:20;;;;;;;15.82;5.22;;;;;;;;;;5011787;28;20034;-85
2021/08/20 03:07:45;;;;;;;11.23;5.30;;;;;;;;;;5013133;28;20025;-85
2021/08/20 03:10:11;;;;;;;10.27;5.22;;;;;;;;;;5011498;28;20385;-85
2021/08/20 03:12:36;;;;;;;13.93;5.55;;;;;;;;;;5011488;28;20421;-85
2021/08/20 03:15:01;;;;;;;14.80;5.10;;;;;;;;;;5015078;28;20117;-85
2021/08/20 03:17:26;;;;;;;12.43;5.40;;;;;;;;;;5017129;28;20026;-85
2021/08/20 03:19:52;;;;;;;12.80;4.97;;;;;;;;;;5015466;28;20787;-85
2021/08/20 03:22:17;;;;;;;11.95;5.82;;;;;;;;;;5015355;28;20026;-85
2021/08/20 03:24:42;;;;;;;12.80;5.68;;;;;;;;;;5015173;28;20018;-85
2021/08/20 03:27:07;;;;;;;15.20;5.57;;;;;;;;;;5015462;28;20129;-85
2021/08/20 03:29:33;;;;;;;16.55;5.75;;;;;;;;;;5015035;28;20045;-85
2021/08/20 03:31:58;;;;;;;15.50;5.28;;;;;;;;;;5016496;28;20077;-85
2021/08/20 03:34:23;;;;;;;12.18;5.43;;;;;;;;;;5015205;28;20359;-85
2021/08/20 03:36:48;;;;;;;13.07;6.10;;;;;;;;;;5016391;28;20021;-85
2021/08/20 03:39:13;;;;;;;14.38;5.90;;;;;;;;;;5016279;28;20061;-85
2021/08/20 03:41:39;;;;;;;15.57;5.47;;;;;;;;;;5014896;28;20113;-85
2021/08/20 03:44:04;;;;;;;12.80;5.47;;;;;;;;;;5015076;28;20529;-86
2021/08/20 03:46:29;;;;;;;13.90;5.35;;;;;;;;;;5015012;28;20044;-85
2021/08/20 03:48:55;;;;;;;15.43;5.60;;;;;;;;;;5014897;28;20111;-85
2021/08/20 03:51:20;;;;;;;10.73;4.80;;;;;;;;;;5014631;28;20120;-85
2021/08/20 03:53:46;;;;;;;13.35;6.00;;;;;;;;;;5014976;28;20047;-85
2021/08/20 03:56:11;;;;;;;14.18;5.80;;;;;;;;;;5014717;28;20053;-85
2021/08/20 03:58:36;;;;;;;14.43;5.32;;;;;;;;;;5014958;28;20433;-85
2021/08/20 04:01:05;;;;;;;11.70;5.47;;;;;;;;;;5014734;28;20021;-85
2021/08/20 04:03:30;;;;;;;12.25;4.85;;;;;;;;;;5014405;28;20177;-85
2021/08/20 04:05:55;;;;;;;12.63;5.45;;;;;;;;;;5015286;28;20109;-85
2021/08/20 04:08:20;;;;;;;11.45;4.85;;;;;;;;;;5013812;28;20535;-85
2021/08/20 04:10:46;;;;;;;11.38;4.57;;;;;;;;;;5013644;28;20025;-85
2021/08/20 04:13:11;;;;;;;10.00;4.75;;;;;;;;;;5015283;28;20029;-85
2021/08/20 04:15:37;;;;;;;8.60;4.40;;;;;;;;;;5046857;28;20502;-85
2021/08/20 04:18:02;;;;;;;14.45;4.90;;;;;;;;;;5013528;28;20029;-85
2021/08/20 04:20:27;;;;;;;10.68;4.68;;;;;;;;;;5013272;28;20018;-85
2021/08/20 04:22:55;;;;;;;10.85;4.43;;;;;;;;;;5013838;28;20029;-85
2021/08/20 04:25:20;;;;;;;10.25;4.50;;;;;;;;;;5013091;28;20053;-85
2021/08/20 04:27:45;;;;;;;8.82;4.38;;;;;;;;;;5014720;28;20099;-85
2021/08/20 04:30:11;;;;;;;8.65;3.95;;;;;;;;;;5014610;28;20426;-85
2021/08/20 04:32:37;;;;;;;11.25;4.72;;;;;;;;;;5013227;28;20026;-85
2021/08/20 04:35:02;;;;;;;15.63;4.40;;;;;;;;;;5013267;28;20170;-85
2021/08/20 04:37:27;;;;;;;9.57;4.82;;;;;;;;;;5014941;28;20024;-86
2021/08/20 04:39:52;;;;;;;11.00;4.75;;;;;;;;;;5013711;28;20032;-86
2021/08/20 04:42:17;;;;;;;15.27;4.43;;;;;;;;;;5014035;28;20026;-86
2021/08/20 04:44:43;;;;;;;7.75;3.90;;;;;;;;;;5013698;28;20378;-85
2021/08/20 04:47:09;;;;;;;8.80;4.65;;;;;;;;;;5013740;28;20517;-86
2021/08/20 04:49:34;;;;;;;9.93;4.30;;;;;;;;;;5013458;28;20048;-86
2021/08/20 04:52:00;;;;;;;9.73;4.57;;;;;;;;;;5013829;28;20100;-86
2021/08/20 04:54:27;;;;;;;10.40;4.70;;;;;;;;;;5013671;28;20048;-85
2021/08/20 04:56:52;;;;;;;12.02;4.93;;;;;;;;;;5017499;28;20028;-85
2021/08/20 04:59:17;;;;;;;12.27;5.05;;;;;;;;;;5014701;28;20026;-86
2021/08/20 05:01:43;;;;;;;9.48;5.10;;;;;;;;;;5013377;28;20037;-86
2021/08/20 05:04:08;;;;;;;10.88;5.32;;;;;;;;;;5013344;28;20066;-86
2021/08/20 05:06:33;;;;;;;16.70;6.97;;;;;;;;;;5014614;28;20116;-85
2021/08/20 05:08:58;;;;;;;21.52;7.93;;;;;;;;;;5013329;28;20440;-86
2021/08/20 05:11:23;;;;;;;16.50;8.13;;;;;;;;;;5020332;28;20484;-85
2021/08/20 05:13:49;;;;;;;20.42;8.70;;;;;;;;;;5018742;28;20029;-86
2021/08/20 05:16:14;;;;;;;17.45;7.47;;;;;;;;;;5013227;28;20374;-86
2021/08/20 05:18:39;;;;;;;16.05;7.18;;;;;;;;;;5013188;28;20041;-86
2021/08/20 05:21:04;;;;;;;21.35;8.93;;;;;;;;;;5012886;28;20018;-86
2021/08/20 05:23:29;;;;;;;21.90;8.93;;;;;;;;;;5013201;28;20354;-86
2021/08/20 05:25:55;;;;;;;15.02;7.00;;;;;;;;;;5013174;28;20010;-86
2021/08/20 05:28:20;;;;;;;11.68;5.60;;;;;;;;;;5014461;28;20029;-86
2021/08/20 05:30:46;;;;;;;11.02;5.47;;;;;;;;;;5014326;28;20013;-86
2021/08/20 05:33:14;;;;;;;11.02;4.78;;;;;;;;;;5013152;28;20026;-86
2021/08/20 05:35:40;;;;;;;7.82;4.18;;;;;;;;;;5012238;28;20079;-86
2021/08/20 05:38:05;;;;;;;12.25;4.20;;;;;;;;;;5012483;28;20421;-85
2021/08/20 05:40:30;;;;;;;9.15;3.95;;;;;;;;;;5012845;28;20433;-85
2021/08/20 05:42:55;;;;;;;9.85;4.63;;;;;;;;;;5012752;28;20029;-85
2021/08/20 05:45:21;;;;;;;7.00;3.58;;;;;;;;;;5012741;28;20026;-86
2021/08/20 05:47:46;;;;;;;6.00;3.30;;;;;;;;;;5024434;28;20033;-86
2021/08/20 05:50:11;;;;;;;7.80;3.70;;;;;;;;;;5012688;28;20549;-86
2021/08/20 05:52:38;;;;;;;7.43;4.00;;;;;;;;;;5012753;28;20022;-85
2021/08/20 05:55:04;;;;;;;5.93;3.53;;;;;;;;;;5012982;28;20021;-85
2021/08/20 05:57:29;;;;;;;8.40;3.67;;;;;;;;;;5012308;28;20080;-85
2021/08/20 05:59:54;;;;;;;7.20;3.33;;;;;;;;;;5012126;28;20059;-86
2021/08/20 06:02:20;;;;;;;7.93;3.72;;;;;;;;;;5012119;28;20465;-86
2021/08/20 06:04:45;;;;;;;8.13;3.58;;;;;;;;;;5011957;28;20038;-86
2021/08/20 06:07:11;;;;;;;5.97;3.25;;;;;;;;;;5014338;28;20033;-86
2021/08/20 06:09:37;;;;;;;6.70;3.55;;;;;;;;;;5012048;28;20022;-86
2021/08/20 06:12:02;;;;;;;7.22;4.10;;;;;;;;;;5012504;28;20100;-86
2021/08/20 06:14:27;;;;;;;10.07;4.53;;;;;;;;;;5011274;28;20373;-86
2021/08/20 06:16:54;;;;;;;9.20;3.88;;;;;;;;;;5011879;28;20501;-86
2021/08/20 06:19:23;;;;;;;8.45;4.28;;;;;;;;;;5012535;28;20037;-86
2021/08/20 06:21:48;;;;;;;8.63;4.28;;;;;;;;;;5044552;28;20030;-86
2021/08/20 06:24:14;;;;;;;8.25;4.45;;;;;;;;;;5011105;28;20393;-86
2021/08/20 06:26:39;;;;;;;8.38;4.47;;;;;;;;;;5011715;28;20013;-86
2021/08/20 06:29:04;;;;;;;10.25;4.80;;;;;;;;;;5011013;28;20046;-87
2021/08/20 06:31:29;;;;;;;14.38;5.03;;;;;;;;;;5010504;28;20450;-86
2021/08/20 06:33:58;;;;;;;9.90;4.60;;;;;;;;;;5011099;28;20028;-86
2021/08/20 06:36:23;;;;;;;9.52;4.93;;;;;;;;;;5011775;28;20087;-86
2021/08/20 06:38:48;;;;;;;11.10;5.43;;;;;;;;;;5011167;28;20022;-86
2021/08/20 06:41:13;;;;;;;8.85;4.20;;;;;;;;;;5012829;28;20117;-86
2021/08/20 06:43:38;;;;;;;8.98;4.70;;;;;;;;;;5010930;28;20029;-86
2021/08/20 06:46:04;;;;;;;9.52;4.32;;;;;;;;;;5010384;28;20026;-86
2021/08/20 06:48:29;;;;;;;8.80;4.80;;;;;;;;;;5010188;28;20458;-86
2021/08/20 06:50:54;;;;;;;9.02;4.97;;;;;;;;;;5010311;28;20024;-86
2021/08/20 06:53:19;;;;;;;9.07;4.57;;;;;;;;;;5011166;28;20101;-86
2021/08/20 06:55:44;;;;;;;11.55;5.03;;;;;;;;;;5009932;28;20478;-86
2021/08/20 06:58:10;;;;;;;8.63;4.22;;;;;;;;;;5011541;28;20389;-86
2021/08/20 07:00:35;;;;;;;6.35;3.72;;;;;;;;;;5012662;28;20025;-87
2021/08/20 07:03:00;;;;;;;8.18;4.45;;;;;;;;;;5011384;28;20026;-86
2021/08/20 07:05:25;;;;;;;11.82;6.05;;;;;;;;;;5011583;28;20033;-86
2021/08/20 07:07:51;;;;;;;8.80;4.80;;;;;;;;;;5014204;28;20026;-86
2021/08/20 07:10:16;;;;;;;11.07;5.20;;;;;;;;;;5011300;28;20111;-86
2021/08/20 07:12:42;;;;;;;8.68;4.93;;;;;;;;;;5011454;28;20152;-86
2021/08/20 07:15:08;;;;;;;9.80;4.28;;;;;;;;;;5010535;28;20490;-86
2021/08/20 07:17:34;;;;;;;10.23;4.43;;;;;;;;;;5010322;28;20033;-86
2021/08/20 07:19:59;;;;;;;9.52;5.53;;;;;;;;;;5010558;28;20026;-86
2021/08/20 07:22:25;;;;;;;12.02;7.05;;;;;;;;;;5010359;28;20036;-86
2021/08/20 07:24:50;;;;;;;12.70;5.15;;;;;;;;;;5010851;28;20030;-86
2021/08/20 07:27:16;;;;;;;12.38;5.88;;;;;;;;;;5010999;28;20022;-86
2021/08/20 07:29:41;;;;;;;10.63;5.20;;;;;;;;;;5016146;28;20420;-87
2021/08/20 07:32:06;;;;;;;8.80;5.03;;;;;;;;;;5012709;28;20014;-86
2021/08/20 07:34:31;;;;;;;9.38;5.70;;;;;;;;;;5012408;28;20026;-86
2021/08/20 07:36:56;;;;;;;8.20;4.75;;;;;;;;;;5010949;28;20447;-86
2021/08/20 07:39:24;;;;;;;11.60;5.70;;;;;;;;;;5010052;28;20049;-86
2021/08/20 07:41:49;;;;;;;13.10;5.47;;;;;;;;;;5009453;28;20117;-85
2021/08/20 07:44:15;;;;;;;8.68;4.97;;;;;;;;;;5010611;28;20054;-86
2021/08/20 07:46:41;;;;;;;8.38;4.38;;;;;;;;;;5010717;28;20069;-86
2021/08/20 07:49:06;;;;;;;8.18;4.43;;;;;;;;;;5011155;28;20049;-86
2021/08/20 07:51:31;;;;;;;9.90;4.72;;;;;;;;;;5010523;28;20029;-86
2021/08/20 07:53:56;;;;;;;8.70;3.92;;;;;;;;;;5011053;28;20033;-86
2021/08/20 07:56:21;;;;;;;8.90;4.60;;;;;;;;;;5012172;28;20075;-86
2021/08/20 07:58:47;;;;;;;6.45;4.38;;;;;;;;;;5011082;28;20018;-85
2021/08/20 08:01:18;;;;;;;9.07;4.25;;;;;;;;;;5013499;28;20076;-86
2021/08/20 08:03:43;;;;;;;7.90;4.28;;;;;;;;;;5029568;28;20034;-86
2021/08/20 08:06:12;;;;;;;11.93;5.50;;;;;;;;;;5015144;28;20439;-86
2021/08/20 08:08:38;;;;;;;13.77;6.03;;;;;;;;;;5014153;28;20014;-86
2021/08/20 08:11:03;;;;;;;7.57;4.00;;;;;;;;;;5013237;28;20024;-86
2021/08/20 08:13:28;;;;;;;7.28;5.00;;;;;;;;;;5010678;28;20072;-86
2021/08/20 08:15:53;;;;;;;6.30;3.75;;;;;;;;;;5014089;28;20384;-86
2021/08/20 08:18:18;;;;;;;8.68;5.03;;;;;;;;;;5012308;28;20025;-86
2021/08/20 08:20:44;;;;;;;7.70;4.53;;;;;;;;;;5013040;28;20088;-86
2021/08/20 08:23:09;;;;;;;6.78;4.30;;;;;;;;;;5011748;28;20026;-85
2021/08/20 08:25:34;;;;;;;6.03;4.25;;;;;;;;;;5009486;28;21234;-85
2021/08/20 08:27:59;;;;;;;7.50;4.55;;;;;;;;;;5011344;28;20029;-86
2021/08/20 08:30:27;;;;;;;8.48;4.47;;;;;;;;;;5020956;28;20522;-86
2021/08/20 08:32:52;;;;;;;10.32;4.50;;;;;;;;;;5012084;28;20022;-86
2021/08/20 08:35:17;;;;;;;7.13;4.30;;;;;;;;;;5012898;28;20083;-86
2021/08/20 08:37:42;;;;;;;10.27;4.07;;;;;;;;;;5012014;28;20676;-86
2021/08/20 08:40:08;;;;;;;7.55;4.15;;;;;;;;;;5012988;28;20484;-86
2021/08/20 08:42:33;;;;;;;6.85;3.47;;;;;;;;;;5012105;28;20049;-85
2021/08/20 08:44:58;;;;;;;7.20;3.90;;;;;;;;;;5012395;28;20087;-85
2021/08/20 08:47:25;;;;;;;6.20;3.85;;;;;;;;;;5011881;28;20034;-85
2021/08/20 08:49:51;;;;;;;7.88;3.30;;;;;;;;;;5044282;28;20022;-85
2021/08/20 08:52:16;;;;;;;9.57;3.70;;;;;;;;;;5012146;28;20025;-85
2021/08/20 08:54:42;;;;;;;7.30;4.35;;;;;;;;;;5012700;28;20018;-86
2021/08/20 08:57:07;;;;;;;5.97;3.40;;;;;;;;;;5011641;28;20022;-85
2021/08/20 08:59:32;;;;;;;12.15;4.18;;;;;;;;;;5013360;28;20017;-85
2021/08/20 09:01:57;;;;;;;6.38;3.63;;;;;;;;;;5012988;28;20080;-85
2021/08/20 09:04:22;;;;;;;6.35;3.70;;;;;;;;;;5012454;28;20459;-84
2021/08/20 09:06:50;;;;;;;4.82;2.88;;;;;;;;;;5011451;28;20025;-82
2021/08/20 09:09:16;;;;;;;6.65;3.65;;;;;;;;;;5012110;28;20108;-82
2021/08/20 09:11:42;;;;;;;5.43;3.42;;;;;;;;;;5012134;28;20021;-84
2021/08/20 09:14:08;;;;;;;4.43;2.85;;;;;;;;;;5012238;28;20022;-82
2021/08/20 09:16:34;;;;;;;6.13;3.33;;;;;;;;;;5012333;28;20026;-82
2021/08/20 09:19:20;;;;;;;5.28;3.40;;;;;;;;;;5012128;28;20022;-82
2021/08/20 09:21:46;;;;;;;6.03;4.10;;;;;;;;;;5042736;28;20030;-83
2021/08/20 09:24:31;;;;;;;5.93;4.22;;;;;;;;;;5012305;28;20032;-82
2021/08/20 09:27:26;;;;;;;5.97;3.80;;;;;;;;;;5008965;28;20026;-82
2021/08/20 09:30:01;;;;;;;6.07;3.70;;;;;;;;;;5032030;28;20084;-85
2021/08/20 09:32:26;;;;;;;6.95;4.32;;;;;;;;;;5010982;28;20362;-87
2021/08/20 09:34:52;;;;;;;6.78;3.17;;;;;;;;;;5011496;28;20029;-84
2021/08/20 09:37:18;;;;;;;6.28;3.63;;;;;;;;;;5012985;28;20101;-85
2021/08/20 09:39:45;;;;;;;8.13;3.70;;;;;;;;;;5012441;28;20042;-82
2021/08/20 09:42:12;;;;;;;9.15;4.30;;;;;;;;;;5011262;28;20030;-83
2021/08/20 09:44:37;;;;;;;8.10;3.58;;;;;;;;;;5012298;28;20052;-83
2021/08/20 09:47:03;;;;;;;8.45;4.03;;;;;;;;;;5011582;28;20022;-84
2021/08/20 09:49:28;;;;;;;6.75;3.35;;;;;;;;;;5011884;28;20022;-83
2021/08/20 09:51:54;;;;;;;6.38;4.15;;;;;;;;;;5012471;28;20493;-85
2021/08/20 09:54:24;;;;;;;7.85;3.85;;;;;;;;;;5012024;28;20028;-84
2021/08/20 09:56:49;;;;;;;6.25;3.85;;;;;;;;;;5012484;28;20076;-85
2021/08/20 09:59:15;;;;;;;11.10;4.78;;;;;;;;;;5005203;28;20034;-84
2021/08/20 10:01:44;;;;;;;13.52;4.50;;;;;;;;;;5006350;28;20029;-84
2021/08/20 10:04:14;;;;;;;6.95;4.28;;;;;;;;;;5011490;28;20038;-85
2021/08/20 10:06:40;;;;;;;7.28;4.00;;;;;;;;;;5013472;28;20022;-85
2021/08/20 10:09:09;;;;;;;6.18;3.92;;;;;;;;;;5042278;28;20018;-85
2021/08/20 10:12:01;;;;;;;6.32;3.78;;;;;;;;;;5056705;28;20056;-85
2021/08/20 10:14:28;;;;;;;9.73;4.13;;;;;;;;;;5007131;28;20049;-85
2021/08/20 10:16:53;;;;;;;9.77;4.50;;;;;;;;;;5010756;28;20026;-85
2021/08/20 10:19:18;;;;;;;7.28;4.13;;;;;;;;;;5011165;28;20150;-85
2021/08/20 10:21:44;;;;;;;5.45;3.92;;;;;;;;;;5010727;28;20028;-85
2021/08/20 10:24:11;;;;;;;6.07;3.78;;;;;;;;;;5011090;28;20123;-85
2021/08/20 10:26:38;;;;;;;6.13;3.70;;;;;;;;;;5011282;28;20018;-85
2021/08/20 10:29:03;;;;;;;4.25;3.10;;;;;;;;;;5011501;28;20021;-85
2021/08/20 10:31:29;;;;;;;5.50;3.30;;;;;;;;;;5013477;28;20093;-86
2021/08/20 10:33:54;;;;;;;5.70;3.58;;;;;;;;;;5011016;28;20018;-85
2021/08/20 10:36:36;;;;;;;8.05;3.22;;;;;;;;;;5011421;28;20021;-86
2021/08/20 10:39:02;;;;;;;7.18;2.95;;;;;;;;;;5026109;28;20030;-85
2021/08/20 10:41:27;;;;;;;4.05;2.92;;;;;;;;;;5024436;28;20032;-86
2021/08/20 10:43:55;;;;;;;1.85;1.23;;;;;;;;;;5012545;28;20022;-86
2021/08/20 10:51:50;;;;;;;6.45;2.28;;;;;;;;;;5011492;28;20034;-86
2021/08/20 10:54:16;;;;;;;4.93;2.40;;;;;;;;;;5010541;28;20026;-86
2021/08/20 10:56:41;;;;;;;4.00;2.55;;;;;;;;;;5007944;28;20033;-85
2021/08/20 10:59:07;;;;;;;4.28;2.40;;;;;;;;;;5012650;28;20061;-86
2021/08/20 11:01:32;;;;;;;6.40;2.83;;;;;;;;;;5011483;28;20034;-86
2021/08/20 11:03:59;;;;;;;5.55;2.13;;;;;;;;;;5006736;28;20027;-86
2021/08/20 11:06:48;;;;;;;6.40;2.67;;;;;;;;;;5009566;28;20026;-85
2021/08/20 11:09:30;;;;;;;4.47;2.05;;;;;;;;;;5004950;28;20030;-86
2021/08/20 11:11:55;;;;;;;3.17;2.25;;;;;;;;;;5010083;28;20462;-86
2021/08/20 11:14:28;;;;;;;11.77;2.85;;;;;;;;;;5009395;28;20092;-83
2021/08/20 11:16:53;;;;;;;3.33;2.10;;;;;;;;;;5009909;28;20018;-83
2021/08/20 11:19:37;;;;;;;7.25;2.50;;;;;;;;;;5009730;28;20037;-83
2021/08/20 11:22:16;;;;;;;3.25;2.40;;;;;;;;;;5046842;28;20018;-85
2021/08/20 11:25:01;;;;;;;4.43;1.98;;;;;;;;;;5009209;28;20108;-85
2021/08/20 11:27:27;;;;;;;8.32;2.30;;;;;;;;;;5025578;28;20105;-83
2021/08/20 11:29:53;;;;;;;7.45;2.40;;;;;;;;;;5010398;28;20014;-84
2021/08/20 11:32:18;;;;;;;2.75;2.00;;;;;;;;;;5009279;28;20026;-83
2021/08/20 11:34:53;;;;;;;3.20;2.22;;;;;;;;;;5004206;28;20014;-83
2021/08/20 11:37:18;;;;;;;5.20;2.83;;;;;;;;;;5012830;28;20036;-83
2021/08/20 11:39:58;;;;;;;3.67;2.38;;;;;;;;;;5013585;28;20025;-82
2021/08/20 11:42:23;;;;;;;3.50;2.45;;;;;;;;;;5014579;28;20044;-82
2021/08/20 11:44:49;;;;;;;3.60;2.55;;;;;;;;;;5043748;28;20018;-85
2021/08/20 11:47:15;;;;;;;3.72;2.58;;;;;;;;;;5012065;28;20054;-85
2021/08/20 11:49:41;;;;;;;2.67;1.90;;;;;;;;;;5014405;28;20014;-84
2021/08/20 11:52:11;;;;;;;6.47;2.17;;;;;;;;;;5013466;28;20018;-85
2021/08/20 11:54:37;;;;;;;3.08;2.20;;;;;;;;;;5013247;28;20010;-85
2021/08/20 11:57:03;;;;;;;2.70;2.15;;;;;;;;;;5003430;28;20018;-85
2021/08/20 11:59:28;;;;;;;4.28;2.53;;;;;;;;;;5051801;28;20556;-85
2021/08/20 12:01:54;;;;;;;4.93;2.08;;;;;;;;;;5013562;28;20022;-85
2021/08/20 12:04:21;;;;;;;2.85;2.00;;;;;;;;;;5021018;28;20029;-85
2021/08/20 12:06:46;;;;;;;5.20;2.40;;;;;;;;;;5017258;28;20480;-82
2021/08/20 12:09:12;;;;;;;3.83;2.30;;;;;;;;;;5015252;28;20052;-84
2021/08/20 12:11:38;;;;;;;4.13;2.10;;;;;;;;;;5014296;28;20026;-85
2021/08/20 12:14:03;;;;;;;2.92;2.17;;;;;;;;;;5014126;28;20044;-84
2021/08/20 12:16:39;;;;;;;3.92;2.10;;;;;;;;;;5014277;28;20105;-85
2021/08/20 12:19:16;;;;;;;3.70;2.00;;;;;;;;;;5013869;28;20010;-86
2021/08/20 12:21:45;;;;;;;3.53;2.00;;;;;;;;;;5014442;28;20049;-85
2021/08/20 12:24:10;;;;;;;2.58;1.60;;;;;;;;;;5013854;28;20022;-84
2021/08/20 12:26:36;;;;;;;2.95;2.00;;;;;;;;;;5014113;28;20020;-84
2021/08/20 12:29:12;;;;;;;4.78;2.03;;;;;;;;;;5014063;28;20535;-85
2021/08/20 12:31:37;;;;;;;2.95;1.98;;;;;;;;;;5015302;28;20545;-85
2021/08/20 12:34:04;;;;;;;4.97;1.73;;;;;;;;;;5048017;28;20112;-85
2021/08/20 12:36:29;;;;;;;2.97;1.98;;;;;;;;;;5012893;28;20048;-85
2021/08/20 12:39:11;;;;;;;2.58;2.00;;;;;;;;;;5041943;28;20046;-85
2021/08/20 12:41:38;;;;;;;3.20;2.10;;;;;;;;;;5043580;28;20417;-85
2021/08/20 12:44:03;;;;;;;6.13;1.90;;;;;;;;;;5012149;28;20050;-85
2021/08/20 12:46:39;;;;;;;2.72;1.98;;;;;;;;;;5012970;28;20022;-85
2021/08/20 12:49:05;;;;;;;3.10;2.33;;;;;;;;;;5010517;28;20018;-85
2021/08/20 12:51:31;;;;;;;5.25;2.50;;;;;;;;;;5011695;28;20018;-85
2021/08/20 12:53:59;;;;;;;3.75;2.10;;;;;;;;;;5012157;28;20026;-85
2021/08/20 12:56:29;;;;;;;3.90;2.00;;;;;;;;;;5044756;28;20034;-85
2021/08/20 12:58:58;;;;;;;2.67;1.98;;;;;;;;;;5011102;28;20033;-84
2021/08/20 13:01:23;;;;;;;3.60;2.00;;;;;;;;;;5012346;28;20026;-84
2021/08/20 13:03:48;;;;;;;5.15;2.30;;;;;;;;;;5012284;28;20441;-85
2021/08/20 13:06:13;;;;;;;6.65;2.08;;;;;;;;;;5012689;28;20026;-85
2021/08/20 13:08:39;;;;;;;3.35;2.00;;;;;;;;;;5013763;28;20132;-85
2021/08/20 13:11:04;;;;;;;4.38;2.28;;;;;;;;;;5014579;28;20373;-85
2021/08/20 13:13:30;;;;;;;4.43;2.00;;;;;;;;;;5018202;28;20489;-85
2021/08/20 13:15:55;;;;;;;3.60;2.53;;;;;;;;;;5014454;28;20033;-85
2021/08/20 13:18:21;;;;;;;3.45;2.17;;;;;;;;;;5014245;28;20029;-85
2021/08/20 13:20:48;;;;;;;3.85;2.55;;;;;;;;;;5013332;28;20110;-85
2021/08/20 13:23:13;;;;;;;3.28;2.20;;;;;;;;;;5013074;28;20044;-85
2021/08/20 13:25:39;;;;;;;4.30;2.25;;;;;;;;;;5012932;28;20022;-85
2021/08/20 13:28:05;;;;;;;7.80;2.40;;;;;;;;;;5012810;28;20026;-86
2021/08/20 13:30:30;;;;;;;5.10;2.10;;;;;;;;;;5014441;28;20022;-85
2021/08/20 13:32:55;;;;;;;3.28;2.08;;;;;;;;;;5013016;28;20470;-85
2021/08/20 13:35:21;;;;;;;4.25;2.17;;;;;;;;;;5012610;28;20449;-85
2021/08/20 13:37:47;;;;;;;8.85;2.00;;;;;;;;;;5019144;28;20030;-85
2021/08/20 13:40:12;;;;;;;4.85;2.05;;;;;;;;;;5012713;28;20053;-85
2021/08/20 13:42:37;;;;;;;3.67;1.80;;;;;;;;;;5012848;28;20056;-85
2021/08/20 13:45:03;;;;;;;4.78;2.17;;;;;;;;;;5012489;28;20108;-85
2021/08/20 13:47:28;;;;;;;5.15;2.20;;;;;;;;;;5012361;28;20536;-85
2021/08/20 13:49:53;;;;;;;3.47;2.28;;;;;;;;;;5013568;28;20374;-85
2021/08/20 13:52:18;;;;;;;8.20;2.72;;;;;;;;;;5012745;28;20048;-85
2021/08/20 13:54:43;;;;;;;4.22;2.10;;;;;;;;;;5012171;28;20104;-84
2021/08/20 13:57:09;;;;;;;6.72;2.08;;;;;;;;;;5011356;28;20030;-83
2021/08/20 13:59:34;;;;;;;4.90;2.08;;;;;;;;;;5015453;28;20030;-83
2021/08/20 14:01:59;;;;;;;3.28;1.88;;;;;;;;;;5012600;28;20022;-82
2021/08/20 14:04:24;;;;;;;9.27;2.50;;;;;;;;;;5013055;28;20061;-82
2021/08/20 14:06:50;;;;;;;6.38;2.42;;;;;;;;;;5012412;28;20378;-82
2021/08/20 14:09:15;;;;;;;3.42;2.17;;;;;;;;;;5012092;28;20097;-82
2021/08/20 14:11:40;;;;;;;3.58;1.90;;;;;;;;;;5013400;28;20472;-83
2021/08/20 14:14:05;;;;;;;2.95;1.98;;;;;;;;;;5011832;28;20018;-83
2021/08/20 14:16:31;;;;;;;4.88;1.98;;;;;;;;;;5012129;28;20810;-83
2021/08/20 14:18:56;;;;;;;4.53;2.30;;;;;;;;;;5013314;28;20014;-82
2021/08/20 14:21:22;;;;;;;3.58;1.52;;;;;;;;;;5012008;28;20427;-83
2021/08/20 14:23:47;;;;;;;3.83;1.90;;;;;;;;;;5013132;28;20033;-82
2021/08/20 14:26:13;;;;;;;5.90;2.10;;;;;;;;;;4998530;28;20373;-83
2021/08/20 14:28:38;;;;;;;3.55;1.70;;;;;;;;;;5011930;28;20083;-82
2021/08/20 14:31:03;;;;;;;5.82;1.50;;;;;;;;;;5012002;28;20041;-83
2021/08/20 14:33:29;;;;;;;3.47;1.88;;;;;;;;;;5017801;28;20022;-83
2021/08/20 14:35:54;;;;;;;5.93;1.90;;;;;;;;;;5012771;28;20022;-82
2021/08/20 14:38:19;;;;;;;5.63;1.80;;;;;;;;;;5011738;28;20021;-82
2021/08/20 14:40:44;;;;;;;4.95;1.75;;;;;;;;;;5024595;28;20053;-83